createdAt,value
2019-05-03T00:02:43.432Z,0.86
2019-05-03T00:07:45.785Z,0.68
2019-05-03T00:12:48.545Z,0.67
2019-05-03T00:17:52.676Z,0.66
2019-05-03T00:22:53.403Z,0.90
2019-05-03T00:27:55.986Z,0.69
2019-05-03T00:32:58.538Z,0.79
2019-05-03T00:38:02.057Z,0.76
2019-05-03T00:43:03.162Z,0.78
2019-05-03T00:48:05.764Z,0.91
2019-05-03T00:53:08.414Z,0.75
2019-05-03T00:58:11.775Z,0.78
2019-05-03T01:03:13.198Z,0.79
2019-05-03T01:08:15.979Z,0.76
2019-05-03T01:13:18.626Z,0.74
2019-05-03T01:18:21.767Z,0.78
2019-05-03T01:23:23.076Z,0.80
2019-05-03T01:28:25.510Z,0.71
2019-05-03T01:33:27.888Z,0.78
2019-05-03T01:38:31.878Z,0.82
2019-05-03T01:43:32.297Z,0.83
2019-05-03T01:48:34.863Z,0.90
2019-05-03T01:53:37.255Z,0.70
2019-05-03T01:58:41.632Z,0.81
2019-05-03T02:03:41.935Z,0.74
2019-05-03T02:08:44.349Z,0.78
2019-05-03T02:13:46.822Z,0.84
2019-05-03T02:18:49.370Z,0.85
2019-05-03T02:23:52.184Z,0.79
2019-05-03T02:28:53.960Z,0.78
2019-05-03T02:33:56.408Z,0.72
2019-05-03T02:38:58.990Z,0.75
2019-05-03T02:44:01.456Z,0.78
2019-05-03T02:49:06.379Z,0.70
2019-05-03T02:54:05.917Z,0.86
2019-05-03T02:59:08.480Z,0.84
2019-05-03T03:04:10.877Z,0.77
2019-05-03T03:09:16.262Z,0.84
2019-05-03T03:14:16.761Z,0.78
2019-05-03T03:19:17.516Z,0.92
2019-05-03T03:24:19.938Z,0.96
2019-05-03T03:29:24.971Z,0.85
2019-05-03T03:34:28.190Z,0.71
2019-05-03T03:39:26.647Z,0.72
2019-05-03T03:44:29.129Z,0.69
2019-05-03T03:49:31.726Z,0.86
2019-05-03T03:54:35.542Z,0.84
2019-05-03T03:59:36.673Z,0.86
2019-05-03T04:04:38.874Z,1.06
2019-05-03T04:09:41.392Z,1.05
2019-05-03T04:14:45.326Z,1.25
2019-05-03T04:19:45.792Z,1.21
2019-05-03T04:24:48.222Z,1.29
2019-05-03T04:29:50.765Z,0.91
2019-05-03T04:34:55.693Z,0.69
2019-05-03T04:39:56.046Z,0.76
2019-05-03T04:44:57.180Z,1.25
2019-05-03T04:49:59.702Z,1.38
2019-05-03T04:55:02.205Z,1.05
2019-05-03T05:00:06.097Z,0.96
2019-05-03T05:05:06.855Z,0.98
2019-05-03T05:10:09.471Z,1.02
2019-05-03T05:15:11.974Z,0.83
2019-05-03T05:20:14.785Z,0.97
2019-05-03T05:25:17.270Z,0.91
2019-05-03T05:30:20.049Z,0.82
2019-05-03T05:35:22.469Z,0.78
2019-05-03T05:40:25.114Z,0.82
2019-05-03T05:45:27.530Z,0.98
2019-05-03T05:50:30.110Z,1.07
2019-05-03T05:55:34.485Z,1.13
2019-05-03T06:00:35.944Z,1.10
2019-05-03T06:05:37.077Z,0.94
2019-05-03T06:10:39.791Z,0.86
2019-05-03T06:15:42.407Z,0.86
2019-05-03T06:20:45.210Z,0.66
2019-05-03T06:25:47.614Z,0.93
2019-05-03T06:30:50.386Z,0.71
2019-05-03T06:35:54.605Z,0.70
2019-05-03T06:40:55.135Z,0.59
2019-05-03T06:45:57.712Z,0.62
2019-05-03T06:51:05.085Z,0.62
2019-05-03T06:56:04.025Z,0.57
2019-05-03T07:01:04.746Z,0.54
2019-05-03T07:06:07.210Z,0.53
2019-05-03T07:11:09.912Z,0.48
2019-05-03T07:16:12.440Z,0.52
2019-05-03T07:21:15.615Z,0.51
2019-05-03T07:26:18.115Z,0.50
2019-05-03T07:31:20.830Z,0.47
2019-05-03T07:36:25.933Z,0.55
2019-05-03T07:41:27.204Z,0.56
2019-05-03T07:46:27.728Z,0.50
2019-05-03T07:51:30.475Z,0.50
2019-05-03T07:56:32.878Z,0.59
2019-05-03T08:01:35.538Z,0.50
2019-05-03T08:06:36.134Z,0.51
2019-05-03T08:11:38.764Z,0.49
2019-05-03T08:16:41.310Z,0.61
2019-05-03T08:21:45.329Z,0.59
2019-05-03T08:26:46.127Z,0.48
2019-05-03T08:31:48.823Z,0.49
2019-05-03T08:36:51.307Z,0.53
2019-05-03T08:41:55.381Z,0.46
2019-05-03T08:46:56.404Z,0.53
2019-05-03T08:51:58.188Z,0.49
2019-05-03T08:57:00.756Z,0.45
2019-05-03T09:02:13.626Z,0.41
2019-05-03T09:07:05.638Z,0.46
2019-05-03T09:12:08.119Z,0.48
2019-05-03T09:17:10.775Z,0.48
2019-05-03T09:22:14.743Z,0.40
2019-05-03T09:27:15.683Z,0.41
2019-05-03T09:32:18.437Z,0.44
2019-05-03T09:37:20.968Z,0.50
2019-05-03T09:42:24.777Z,0.54
2019-05-03T09:47:25.643Z,0.45
2019-05-03T09:52:28.264Z,0.45
2019-05-03T09:57:30.699Z,0.47
2019-05-03T10:02:35.263Z,0.40
2019-05-03T10:07:35.507Z,0.47
2019-05-03T10:12:38.184Z,0.50
2019-05-03T10:17:40.624Z,0.46
2019-05-03T10:22:43.403Z,0.48
2019-05-03T10:27:46.047Z,0.51
2019-05-03T10:32:48.508Z,0.53
2019-05-03T10:37:51.234Z,0.58
2019-05-03T10:42:55.256Z,0.61
2019-05-03T10:47:55.887Z,0.57
2019-05-03T10:52:58.913Z,0.60
2019-05-03T10:58:01.442Z,0.50
2019-05-03T11:03:05.300Z,0.47
2019-05-03T11:08:06.165Z,0.59
2019-05-03T11:13:08.818Z,0.49
2019-05-03T11:18:11.262Z,0.57
2019-05-03T11:23:14.607Z,0.56
2019-05-03T11:28:15.726Z,0.46
2019-05-03T11:33:18.293Z,0.57
2019-05-03T11:38:20.803Z,0.60
2019-05-03T11:43:24.718Z,0.53
2019-05-03T11:48:25.415Z,0.56
2019-05-03T11:53:27.773Z,0.69
2019-05-03T11:58:30.523Z,0.63
2019-05-03T12:03:33.024Z,0.54
2019-05-03T12:08:35.666Z,0.58
2019-05-03T12:13:38.064Z,0.69
2019-05-03T12:18:50.258Z,0.56
2019-05-03T12:23:45.428Z,0.70
2019-05-03T12:28:45.075Z,0.49
2019-05-03T12:33:47.645Z,0.49
2019-05-03T12:38:50.532Z,0.71
2019-05-03T12:43:55.023Z,0.63
2019-05-03T12:48:55.263Z,0.60
2019-05-03T12:53:57.858Z,0.55
2019-05-03T12:59:00.444Z,0.55
2019-05-03T13:04:03.088Z,0.66
2019-05-03T13:09:05.774Z,0.60
2019-05-03T13:14:08.163Z,0.54
2019-05-03T13:19:10.711Z,0.70
2019-05-03T13:24:22.894Z,0.79
2019-05-03T13:29:15.474Z,0.66
2019-05-03T13:34:18.008Z,0.61
2019-05-03T13:39:20.683Z,0.75
2019-05-03T13:44:24.750Z,0.65
2019-05-03T13:49:26.536Z,0.67
2019-05-03T13:54:27.709Z,0.64
2019-05-03T13:59:30.203Z,0.63
2019-05-03T14:04:42.779Z,0.55
2019-05-03T14:09:35.025Z,0.74
2019-05-03T14:14:37.721Z,0.68
2019-05-03T14:19:40.290Z,0.74
2019-05-03T14:24:44.516Z,0.62
2019-05-03T14:29:45.512Z,0.55
2019-05-03T14:34:48.033Z,0.64
2019-05-03T14:39:50.459Z,0.71
2019-05-03T14:44:55.153Z,0.63
2019-05-03T14:49:55.281Z,0.59
2019-05-03T14:54:57.915Z,0.58
2019-05-03T15:00:00.604Z,0.57
2019-05-03T15:05:05.386Z,0.56
2019-05-03T15:10:05.621Z,0.53
2019-05-03T15:15:07.670Z,0.62
2019-05-03T15:20:10.232Z,0.49
2019-05-03T15:25:13.026Z,0.54
2019-05-03T15:30:15.708Z,0.70
2019-05-03T15:35:18.315Z,0.71
2019-05-03T15:40:20.914Z,0.58
2019-05-03T15:45:25.099Z,0.62
2019-05-03T15:50:25.454Z,0.81
2019-05-03T15:55:28.148Z,0.59
2019-05-03T16:00:30.732Z,0.88
2019-05-03T16:05:35.405Z,0.58
2019-05-03T16:10:36.442Z,0.71
2019-05-03T16:15:37.712Z,0.73
2019-05-03T16:20:40.234Z,0.68
2019-05-03T16:25:44.709Z,0.60
2019-05-03T16:30:45.462Z,0.66
2019-05-03T16:35:46.879Z,0.68
2019-05-03T16:40:49.506Z,0.71
2019-05-03T16:45:51.996Z,0.74
2019-05-03T16:50:49.506Z,0.81
2019-05-03T16:56:03.430Z,0.86
2019-05-03T17:01:04.330Z,0.88
2019-05-03T17:06:06.960Z,0.83
2019-05-03T17:11:05.642Z,0.80
2019-05-03T17:16:16.478Z,0.94
2019-05-03T17:21:19.202Z,1.01
2019-05-03T17:26:21.853Z,0.77
2019-05-03T17:31:24.604Z,0.87
2019-05-03T17:36:27.288Z,0.71
2019-05-03T17:41:29.942Z,0.81
2019-05-03T17:46:32.439Z,0.80
2019-05-03T17:51:35.274Z,0.84
2019-05-03T17:56:38.061Z,1.03
2019-05-03T18:01:40.788Z,0.89
2019-05-03T18:06:45.124Z,0.83
2019-05-03T18:11:45.592Z,0.90
2019-05-03T18:16:48.071Z,1.07
2019-05-03T18:21:50.889Z,1.09
2019-05-03T18:26:53.438Z,1.21
2019-05-03T18:31:56.129Z,1.87
2019-05-03T18:36:58.690Z,1.64
2019-05-03T18:42:01.110Z,1.43
2019-05-03T18:47:05.449Z,1.85
2019-05-03T18:52:06.064Z,2.40
2019-05-03T18:57:08.716Z,1.23
2019-05-03T19:02:11.410Z,1.22
2019-05-03T19:07:12.558Z,1.00
2019-05-03T19:12:15.461Z,1.86
2019-05-03T19:17:17.862Z,0.89
2019-05-03T19:22:20.674Z,0.99
2019-05-03T19:27:24.941Z,1.18
2019-05-03T19:32:28.192Z,1.47
2019-05-03T19:37:26.110Z,1.08
2019-05-03T19:42:29.020Z,1.04
2019-05-03T19:47:31.809Z,1.27
2019-05-03T19:52:36.857Z,1.09
2019-05-03T19:57:36.580Z,1.07
2019-05-03T20:02:39.759Z,0.98
2019-05-03T20:07:42.533Z,0.99
2019-05-03T20:12:45.013Z,0.96
2019-05-03T20:17:56.586Z,1.17
2019-05-03T20:22:49.841Z,1.01
2019-05-03T20:27:52.891Z,1.03
2019-05-03T20:32:55.676Z,1.05
2019-05-03T20:37:58.273Z,1.11
2019-05-03T20:43:01.037Z,0.94
2019-05-03T20:48:05.310Z,1.00
2019-05-03T20:53:05.977Z,1.01
2019-05-03T20:58:09.302Z,1.21
2019-05-03T21:03:10.716Z,1.09
2019-05-03T21:08:14.808Z,1.60
2019-05-03T21:13:15.233Z,1.13
2019-05-03T21:18:17.708Z,1.37
2019-05-03T21:23:20.525Z,1.93
2019-05-03T21:28:25.085Z,1.44
2019-05-03T21:33:25.806Z,1.35
2019-05-03T21:38:27.309Z,1.23
2019-05-03T21:43:29.883Z,1.22
2019-05-03T21:48:32.454Z,1.13
2019-05-03T21:53:35.191Z,1.17
2019-05-03T21:58:37.729Z,1.11
2019-05-03T22:03:40.458Z,1.15
2019-05-03T22:08:43.009Z,1.14
2019-05-03T22:13:45.578Z,1.03
2019-05-03T22:18:48.171Z,1.20
2019-05-03T22:23:50.864Z,1.23
2019-05-03T22:28:54.759Z,1.05
2019-05-03T22:33:55.884Z,1.10
2019-05-03T22:38:58.432Z,1.12
2019-05-03T22:44:01.069Z,1.22
2019-05-03T22:49:04.884Z,1.19
2019-05-03T22:54:05.805Z,1.19
2019-05-03T22:59:08.252Z,1.14
2019-05-03T23:04:10.865Z,1.35
2019-05-03T23:09:15.667Z,1.16
2019-05-03T23:14:15.540Z,1.21
2019-05-03T23:19:18.023Z,1.29
2019-05-03T23:24:20.599Z,1.33
2019-05-03T23:29:23.097Z,1.31
2019-05-03T23:34:25.586Z,1.37
2019-05-03T23:39:28.292Z,1.33
2019-05-03T23:44:30.693Z,1.29
2019-05-03T23:49:35.124Z,1.42
2019-05-03T23:54:35.299Z,1.32
2019-05-03T23:59:37.896Z,1.34
